Time;durP1;ratioP1;P1;durP2;ratioP2;P2;SDS_P1;SDS_P2;PMS_P1;PMS_P2;Temp;Humidity;BMP_temperature;BMP_pressure;BME280_temperature;BME280_humidity;BME280_pressure;Samples;Min_cycle;Max_cycle;Signal;HPM_P1;HPM_P2
2022/06/02 00:00:24;;;;;;;;;;;20.00;58.60;;;;;;5063490;28;19916;-67
2022/06/02 00:03:08;;;;;;;;;;;20.00;58.50;;;;;;5064552;28;20281;-68
2022/06/02 00:05:54;;;;;;;;;;;20.00;58.50;;;;;;5085442;28;19939;-68
2022/06/02 00:08:38;;;;;;;;;;;20.00;58.60;;;;;;5076665;28;20618;-68
2022/06/02 00:11:22;;;;;;;;;;;20.00;58.40;;;;;;5063426;28;19920;-68
2022/06/02 00:14:04;;;;;;;;;;;20.00;58.50;;;;;;5073521;28;19999;-67
2022/06/02 00:16:41;;;;;;;;;;;20.00;58.50;;;;;;5065334;28;19908;-68
2022/06/02 00:19:08;;;;;;;;;;;20.00;58.50;;;;;;5071886;28;19908;-67
2022/06/02 00:21:37;;;;;;;;;;;20.00;58.50;;;;;;5060368;28;19982;-67
2022/06/02 00:24:11;;;;;;;;;;;20.00;58.50;;;;;;5048803;28;19923;-68
2022/06/02 00:26:44;;;;;;;;;;;20.00;58.50;;;;;;5063242;28;19919;-67
2022/06/02 00:29:16;;;;;;;;;;;20.00;58.50;;;;;;5062761;28;20643;-69
2022/06/02 00:31:50;;;;;;;;;;;20.00;58.50;;;;;;5046484;28;19909;-68
2022/06/02 00:34:19;;;;;;;;;;;20.00;58.40;;;;;;5063359;28;20591;-68
2022/06/02 00:36:47;;;;;;;;;;;20.00;58.40;;;;;;5063356;28;19912;-68
2022/06/02 00:39:14;;;;;;;;;;;20.00;58.50;;;;;;5073141;28;20040;-67
2022/06/02 00:41:39;;;;;;;;;;;20.00;58.40;;;;;;5048390;28;19931;-65
2022/06/02 00:44:09;;;;;;;;;;;20.00;58.50;;;;;;5075533;28;20379;-66
2022/06/02 00:46:34;;;;;;;;;;;20.00;58.50;;;;;;5063203;28;19943;-68
2022/06/02 00:49:08;;;;;;;;;;;20.00;58.40;;;;;;5069570;28;19983;-68
2022/06/02 00:51:37;;;;;;;;;;;20.00;58.50;;;;;;5065646;28;19920;-66
2022/06/02 00:57:31;;;;;;;;;;;20.00;58.50;;;;;;5083131;28;19977;-68
2022/06/02 01:00:08;;;;;;;;;;;20.00;58.50;;;;;;5061489;28;19916;-66
2022/06/02 01:02:38;;;;;;;;;;;20.00;58.50;;;;;;5062993;28;19921;-69
2022/06/02 01:05:03;;;;;;;;;;;20.00;58.50;;;;;;5065606;28;19931;-69
2022/06/02 01:07:35;;;;;;;;;;;20.00;58.50;;;;;;5065240;28;19912;-67
2022/06/02 01:10:09;;;;;;;;;;;20.00;58.50;;;;;;5070643;28;19912;-68
2022/06/02 01:12:37;;;;;;;;;;;19.90;58.40;;;;;;5061928;28;19920;-67
2022/06/02 01:15:21;;;;;;;;;;;20.00;58.50;;;;;;5075248;28;19912;-68
2022/06/02 01:17:47;;;;;;;;;;;20.00;58.50;;;;;;5083180;28;19916;-67
2022/06/02 01:20:25;;;;;;;;;;;20.00;58.40;;;;;;5070643;28;19919;-67
2022/06/02 01:23:03;;;;;;;;;;;19.90;58.40;;;;;;5061271;28;19934;-68
2022/06/02 01:25:32;;;;;;;;;;;19.90;58.50;;;;;;5065087;28;19912;-67
2022/06/02 01:28:12;;;;;;;;;;;20.00;58.50;;;;;;5082905;28;19951;-67
2022/06/02 01:30:53;;;;;;;;;;;20.00;58.50;;;;;;5067996;28;19966;-67
2022/06/02 01:33:25;;;;;;;;;;;20.00;58.40;;;;;;5062649;28;19999;-67
2022/06/02 01:35:54;;;;;;;;;;;19.90;58.40;;;;;;5065113;28;19919;-68
2022/06/02 01:38:22;;;;;;;;;;;20.00;58.50;;;;;;5064270;28;19915;-67
2022/06/02 01:40:51;;;;;;;;;;;19.90;58.30;;;;;;5067494;28;19913;-67
2022/06/02 01:43:17;;;;;;;;;;;19.90;58.40;;;;;;5062701;28;19920;-67
2022/06/02 01:46:01;;;;;;;;;;;19.90;58.40;;;;;;5076348;28;20389;-68
2022/06/02 01:48:29;;;;;;;;;;;19.90;58.30;;;;;;5063131;28;20716;-67
2022/06/02 01:51:01;;;;;;;;;;;19.90;58.40;;;;;;5067985;28;19958;-67
2022/06/02 01:53:33;;;;;;;;;;;19.90;58.40;;;;;;5060794;28;20371;-67
2022/06/02 01:56:17;;;;;;;;;;;19.90;58.40;;;;;;5064580;28;20042;-67
2022/06/02 01:59:01;;;;;;;;;;;19.90;58.40;;;;;;5081650;28;19912;-68
2022/06/02 02:01:30;;;;;;;;;;;19.90;58.40;;;;;;5064085;28;19912;-68
2022/06/02 02:04:04;;;;;;;;;;;19.90;58.30;;;;;;5062048;28;20017;-68
2022/06/02 02:06:34;;;;;;;;;;;19.90;58.40;;;;;;5079371;28;19955;-68
2022/06/02 02:09:00;;;;;;;;;;;19.90;58.30;;;;;;5081252;28;19962;-68
2022/06/02 02:11:36;;;;;;;;;;;19.90;58.40;;;;;;5066788;28;20349;-68
2022/06/02 02:14:13;;;;;;;;;;;19.90;58.30;;;;;;5060585;28;19916;-68
2022/06/02 02:16:45;;;;;;;;;;;19.90;58.30;;;;;;5079163;28;19912;-68
2022/06/02 02:19:24;;;;;;;;;;;19.90;58.30;;;;;;5054518;28;19916;-68
2022/06/02 02:21:59;;;;;;;;;;;19.90;58.30;;;;;;5064550;28;19946;-66
2022/06/02 02:24:32;;;;;;;;;;;19.90;58.30;;;;;;5061689;28;19924;-67
2022/06/02 02:27:06;;;;;;;;;;;19.90;58.30;;;;;;5080258;28;19923;-67
2022/06/02 02:29:40;;;;;;;;;;;19.90;58.30;;;;;;5063054;28;19999;-68
2022/06/02 02:32:09;;;;;;;;;;;19.90;58.30;;;;;;5063899;28;20007;-68
2022/06/02 02:34:49;;;;;;;;;;;19.80;58.20;;;;;;5062313;28;20014;-69
2022/06/02 02:37:36;;;;;;;;;;;19.90;58.30;;;;;;5081177;28;19912;-67
2022/06/02 02:40:07;;;;;;;;;;;19.80;58.20;;;;;;5063497;28;19923;-69
2022/06/02 02:42:34;;;;;;;;;;;19.90;58.30;;;;;;5040259;28;20015;-67
2022/06/02 02:45:02;;;;;;;;;;;19.90;58.20;;;;;;5023834;28;19927;-67
2022/06/02 02:47:32;;;;;;;;;;;19.80;58.20;;;;;;5080263;28;19920;-67
2022/06/02 02:50:05;;;;;;;;;;;19.80;58.20;;;;;;5063229;28;20018;-67
2022/06/02 02:52:42;;;;;;;;;;;19.80;58.20;;;;;;5061892;28;19924;-67
2022/06/02 02:55:15;;;;;;;;;;;19.80;58.20;;;;;;5060376;28;19970;-67
2022/06/02 02:58:02;;;;;;;;;;;19.80;58.10;;;;;;5063378;28;19920;-68
2022/06/02 03:00:39;;;;;;;;;;;19.80;58.20;;;;;;5061890;28;19917;-67
2022/06/02 03:03:07;;;;;;;;;;;19.80;58.10;;;;;;5060390;28;20417;-67
2022/06/02 03:05:32;;;;;;;;;;;19.80;58.10;;;;;;5065032;28;19921;-68
2022/06/02 03:08:04;;;;;;;;;;;19.80;58.10;;;;;;5085152;28;19912;-67
2022/06/02 03:10:35;;;;;;;;;;;19.80;58.10;;;;;;5067051;28;19935;-67
2022/06/02 03:13:25;;;;;;;;;;;19.80;58.10;;;;;;5027939;28;20011;-68
2022/06/02 03:15:52;;;;;;;;;;;19.80;58.10;;;;;;5035238;28;20227;-67
2022/06/02 03:18:26;;;;;;;;;;;19.80;58.10;;;;;;5047313;28;19920;-67
2022/06/02 03:20:59;;;;;;;;;;;19.80;58.10;;;;;;5064899;28;19966;-68
2022/06/02 03:23:38;;;;;;;;;;;19.80;58.00;;;;;;5065054;28;19916;-67
2022/06/02 03:26:22;;;;;;;;;;;19.80;58.10;;;;;;5067950;28;19920;-66
2022/06/02 03:29:07;;;;;;;;;;;19.80;58.00;;;;;;5084046;28;19947;-68
2022/06/02 03:31:38;;;;;;;;;;;19.80;58.10;;;;;;5078593;28;19951;-67
2022/06/02 03:34:21;;;;;;;;;;;19.80;58.10;;;;;;5064478;28;19925;-68
2022/06/02 03:36:50;;;;;;;;;;;19.80;58.00;;;;;;5050434;28;20009;-68
2022/06/02 03:39:21;;;;;;;;;;;19.80;57.90;;;;;;5064244;28;19917;-67
2022/06/02 03:42:04;;;;;;;;;;;19.80;57.80;;;;;;5067098;28;19956;-67
2022/06/02 03:44:33;;;;;;;;;;;19.80;57.80;;;;;;5084987;28;19959;-67
2022/06/02 03:47:07;;;;;;;;;;;19.80;57.90;;;;;;5085411;28;20543;-67
2022/06/02 03:49:46;;;;;;;;;;;19.80;57.80;;;;;;5065834;28;19912;-68
2022/06/02 03:52:30;;;;;;;;;;;19.80;57.90;;;;;;5062876;28;20874;-68
2022/06/02 03:55:02;;;;;;;;;;;19.80;57.90;;;;;;5064921;28;19922;-67
2022/06/02 03:57:32;;;;;;;;;;;19.80;57.90;;;;;;5065615;28;19916;-68
2022/06/02 04:00:09;;;;;;;;;;;19.80;57.90;;;;;;5066719;28;20357;-68
2022/06/02 04:02:39;;;;;;;;;;;19.80;57.80;;;;;;5074271;28;19951;-67
2022/06/02 04:05:13;;;;;;;;;;;19.80;57.80;;;;;;5063363;28;19928;-67
2022/06/02 04:07:44;;;;;;;;;;;19.80;57.70;;;;;;5064120;28;20492;-67
2022/06/02 04:10:18;;;;;;;;;;;19.80;57.80;;;;;;5045730;28;20408;-67
2022/06/02 04:15:49;;;;;;;;;;;19.80;57.80;;;;;;5063619;28;19981;-67
2022/06/02 04:18:18;;;;;;;;;;;19.80;57.90;;;;;;5077525;28;19912;-68
2022/06/02 04:21:02;;;;;;;;;;;19.80;57.90;;;;;;5067092;28;19912;-67
2022/06/02 04:23:49;;;;;;;;;;;19.80;57.90;;;;;;5062332;28;20621;-67
2022/06/02 04:26:33;;;;;;;;;;;19.80;57.80;;;;;;5064172;28;19959;-67
2022/06/02 04:29:17;;;;;;;;;;;19.80;57.90;;;;;;5063965;28;20010;-67
2022/06/02 04:32:01;;;;;;;;;;;19.80;57.90;;;;;;5064336;28;19913;-67
2022/06/02 04:34:32;;;;;;;;;;;19.80;57.80;;;;;;5062275;28;19916;-66
2022/06/02 04:37:00;;;;;;;;;;;19.80;57.70;;;;;;5047628;28;19925;-69
2022/06/02 04:39:29;;;;;;;;;;;19.90;57.70;;;;;;5043838;28;19913;-67
2022/06/02 04:42:01;;;;;;;;;;;19.90;57.60;;;;;;5026682;28;19917;-67
2022/06/02 04:44:32;;;;;;;;;;;19.90;57.60;;;;;;5065504;28;19923;-66
2022/06/02 04:47:18;;;;;;;;;;;19.90;57.60;;;;;;5083463;28;19916;-67
2022/06/02 04:49:58;;;;;;;;;;;19.90;57.50;;;;;;5042130;28;19917;-59
2022/06/02 04:52:32;;;;;;;;;;;20.00;57.60;;;;;;5045999;28;19917;-66
2022/06/02 04:55:10;;;;;;;;;;;20.00;57.60;;;;;;5084136;28;19920;-70
2022/06/02 04:57:38;;;;;;;;;;;20.00;57.60;;;;;;5073251;28;20397;-65
2022/06/02 05:00:05;;;;;;;;;;;20.00;57.80;;;;;;5062516;28;20386;-65
2022/06/02 05:02:55;;;;;;;;;;;20.00;57.60;;;;;;5063194;28;19912;-66
2022/06/02 05:05:26;;;;;;;;;;;20.00;57.60;;;;;;5083815;28;19981;-67
2022/06/02 05:08:10;;;;;;;;;;;20.00;57.50;;;;;;5081016;28;19913;-66
2022/06/02 05:10:39;;;;;;;;;;;20.00;57.70;;;;;;5064034;28;19921;-65
2022/06/02 05:13:22;;;;;;;;;;;20.00;57.60;;;;;;5065804;28;19924;-66
2022/06/02 05:15:53;;;;;;;;;;;20.00;57.80;;;;;;5065308;28;19920;-66
2022/06/02 05:18:23;;;;;;;;;;;20.00;57.70;;;;;;5061928;28;19960;-68
2022/06/02 05:20:54;;;;;;;;;;;20.00;57.80;;;;;;5062546;28;20573;-68
2022/06/02 05:23:26;;;;;;;;;;;20.00;57.70;;;;;;5065647;28;20405;-67
2022/06/02 05:26:01;;;;;;;;;;;20.00;57.80;;;;;;5083878;28;20519;-65
2022/06/02 05:28:26;;;;;;;;;;;20.10;58.10;;;;;;5060507;28;19916;-65
2022/06/02 05:30:51;;;;;;;;;;;20.10;58.10;;;;;;5063013;28;20394;-68
2022/06/02 05:33:21;;;;;;;;;;;20.10;57.90;;;;;;5065879;28;20038;-67
2022/06/02 05:35:47;;;;;;;;;;;20.10;58.10;;;;;;5064945;28;19920;-65
2022/06/02 05:38:30;;;;;;;;;;;20.10;58.60;;;;;;5081415;28;20310;-65
2022/06/02 05:41:19;;;;;;;;;;;20.10;58.60;;;;;;5060548;28;20602;-66
2022/06/02 05:44:04;;;;;;;;;;;20.10;58.50;;;;;;5064642;28;20450;-65
2022/06/02 05:46:35;;;;;;;;;;;20.10;58.10;;;;;;5063403;28;21124;-67
2022/06/02 05:49:09;;;;;;;;;;;20.10;58.50;;;;;;5074693;28;19920;-67
2022/06/02 05:51:35;;;;;;;;;;;20.10;58.40;;;;;;5062073;28;19917;-68
2022/06/02 05:54:17;;;;;;;;;;;20.10;58.40;;;;;;5068693;28;19923;-67
2022/06/02 05:56:42;;;;;;;;;;;20.10;58.30;;;;;;5063996;28;21450;-66
2022/06/02 05:59:26;;;;;;;;;;;20.00;57.70;;;;;;5074675;28;20363;-67
2022/06/02 06:02:11;;;;;;;;;;;20.00;58.10;;;;;;5061788;28;20023;-66
2022/06/02 06:04:45;;;;;;;;;;;19.90;58.30;;;;;;5071959;28;20556;-65
2022/06/02 06:07:14;;;;;;;;;;;20.00;59.00;;;;;;5082674;28;19922;-66
2022/06/02 06:09:58;;;;;;;;;;;20.00;57.90;;;;;;5072235;28;19917;-67
2022/06/02 06:12:32;;;;;;;;;;;20.00;57.80;;;;;;5062316;28;20307;-68
2022/06/02 06:15:01;;;;;;;;;;;20.00;58.80;;;;;;5073279;28;19982;-66
2022/06/02 06:17:36;;;;;;;;;;;20.00;58.80;;;;;;5064120;28;19918;-65
2022/06/02 06:20:02;;;;;;;;;;;20.00;58.80;;;;;;5070292;28;19916;-67
2022/06/02 06:22:46;;;;;;;;;;;20.00;58.90;;;;;;5062102;28;20576;-66
2022/06/02 06:25:30;;;;;;;;;;;20.00;58.80;;;;;;5074235;28;19920;-65
2022/06/02 06:28:04;;;;;;;;;;;20.00;58.60;;;;;;5081200;28;19913;-66
2022/06/02 06:30:49;;;;;;;;;;;20.00;58.80;;;;;;5058920;28;19944;-66
2022/06/02 06:33:34;;;;;;;;;;;20.00;58.10;;;;;;5060966;28;19926;-66
2022/06/02 06:36:18;;;;;;;;;;;20.00;58.70;;;;;;5078709;28;19916;-66
2022/06/02 06:39:00;;;;;;;;;;;19.90;56.00;;;;;;5080485;28;19954;-66
2022/06/02 06:41:35;;;;;;;;;;;19.90;58.70;;;;;;5039755;28;21548;-66
2022/06/02 06:44:23;;;;;;;;;;;20.00;58.50;;;;;;5023477;28;20461;-66
2022/06/02 06:46:49;;;;;;;;;;;20.00;58.30;;;;;;5023886;28;19967;-65
2022/06/02 06:49:15;;;;;;;;;;;20.00;58.20;;;;;;5042287;28;19921;-66
2022/06/02 06:51:59;;;;;;;;;;;20.00;58.10;;;;;;5080958;28;22108;-66
2022/06/02 06:54:28;;;;;;;;;;;20.00;57.90;;;;;;5062472;28;19924;-66
2022/06/02 06:56:58;;;;;;;;;;;20.00;57.70;;;;;;5061863;28;19992;-67
2022/06/02 06:59:43;;;;;;;;;;;20.00;57.50;;;;;;5059357;28;20279;-67
2022/06/02 07:02:12;;;;;;;;;;;20.00;56.30;;;;;;5081273;28;19916;-66
2022/06/02 07:04:40;;;;;;;;;;;20.00;57.50;;;;;;5079309;28;20501;-65
2022/06/02 07:07:09;;;;;;;;;;;20.00;56.80;;;;;;5061800;28;20419;-66
2022/06/02 07:09:49;;;;;;;;;;;19.90;55.30;;;;;;5061343;28;20701;-66
2022/06/02 07:15:15;;;;;;;;;;;19.90;57.20;;;;;;5077540;28;19966;-65
2022/06/02 07:17:59;;;;;;;;;;;19.90;57.10;;;;;;5061196;28;19917;-67
2022/06/02 07:20:25;;;;;;;;;;;20.00;57.10;;;;;;5066442;28;20398;-66
2022/06/02 07:22:59;;;;;;;;;;;20.00;57.00;;;;;;5063252;28;19924;-65
2022/06/02 07:25:26;;;;;;;;;;;19.90;56.20;;;;;;5060563;28;19917;-66
2022/06/02 07:27:53;;;;;;;;;;;19.90;57.20;;;;;;5059861;28;19916;-66
2022/06/02 07:30:21;;;;;;;;;;;19.90;56.10;;;;;;5064386;28;19920;-62
2022/06/02 07:33:07;;;;;;;;;;;19.90;57.10;;;;;;5080800;28;19920;-66
2022/06/02 07:35:40;;;;;;;;;;;19.90;57.00;;;;;;5075925;28;19913;-66
2022/06/02 07:38:24;;;;;;;;;;;19.90;57.30;;;;;;5059505;28;20037;-66
2022/06/02 07:40:55;;;;;;;;;;;19.90;57.10;;;;;;5067290;28;19916;-61
2022/06/02 07:43:39;;;;;;;;;;;19.90;57.20;;;;;;5062846;28;19916;-65
2022/06/02 07:46:24;;;;;;;;;;;19.90;57.10;;;;;;5072747;28;19925;-65
2022/06/02 07:49:01;;;;;;;;;;;19.90;57.10;;;;;;5060495;28;20171;-65
2022/06/02 07:51:27;;;;;;;;;;;19.70;57.20;;;;;;5075102;28;19995;-65
2022/06/02 07:54:05;;;;;;;;;;;19.80;57.20;;;;;;5084518;28;19995;-65
2022/06/02 07:56:33;;;;;;;;;;;19.90;57.20;;;;;;5062851;28;20110;-65
2022/06/02 07:59:05;;;;;;;;;;;19.80;57.10;;;;;;5063882;28;19981;-65
2022/06/02 08:01:52;;;;;;;;;;;19.80;57.20;;;;;;5074101;28;20298;-65
2022/06/02 08:04:28;;;;;;;;;;;19.90;56.80;;;;;;5065714;28;20631;-65
2022/06/02 08:07:02;;;;;;;;;;;19.90;57.10;;;;;;5062648;28;19975;-65
2022/06/02 08:09:33;;;;;;;;;;;19.90;57.20;;;;;;5061925;28;19928;-66
2022/06/02 08:12:17;;;;;;;;;;;20.00;57.20;;;;;;5065967;28;20363;-65
2022/06/02 08:14:52;;;;;;;;;;;19.90;54.20;;;;;;5056662;28;19913;-65
2022/06/02 08:17:36;;;;;;;;;;;19.90;57.30;;;;;;5070514;28;20443;-65
2022/06/02 08:20:01;;;;;;;;;;;19.90;57.20;;;;;;5063930;28;19912;-66
2022/06/02 08:22:34;;;;;;;;;;;20.00;57.20;;;;;;5078885;28;19924;-64
2022/06/02 08:25:24;;;;;;;;;;;20.00;57.20;;;;;;5083928;28;19928;-65
2022/06/02 08:28:08;;;;;;;;;;;20.00;57.20;;;;;;5067046;28;20120;-64
2022/06/02 08:30:33;;;;;;;;;;;20.00;57.20;;;;;;5063844;28;19912;-64
2022/06/02 08:33:10;;;;;;;;;;;20.00;57.20;;;;;;5081411;28;19920;-65
2022/06/02 08:35:44;;;;;;;;;;;20.00;57.50;;;;;;5066098;28;19916;-65
2022/06/02 08:38:20;;;;;;;;;;;20.00;57.20;;;;;;5065377;28;19912;-65
2022/06/02 08:41:00;;;;;;;;;;;20.00;57.20;;;;;;5062841;28;21619;-66
2022/06/02 08:43:39;;;;;;;;;;;20.00;57.20;;;;;;5064902;28;20655;-65
2022/06/02 08:46:08;;;;;;;;;;;20.00;57.10;;;;;;5065783;28;19988;-66
2022/06/02 08:48:42;;;;;;;;;;;20.00;56.20;;;;;;5042719;28;20315;-66
2022/06/02 08:51:18;;;;;;;;;;;19.90;56.90;;;;;;5043974;28;20331;-65
2022/06/02 08:53:47;;;;;;;;;;;19.80;56.90;;;;;;5025929;28;19912;-65
2022/06/02 08:56:25;;;;;;;;;;;19.90;57.10;;;;;;5043541;28;19913;-65
2022/06/02 08:59:09;;;;;;;;;;;19.90;56.90;;;;;;5024729;28;19924;-65
2022/06/02 09:01:53;;;;;;;;;;;19.90;57.20;;;;;;5045907;28;19921;-65
2022/06/02 09:04:37;;;;;;;;;;;20.00;57.20;;;;;;5083080;28;19920;-65
2022/06/02 09:07:12;;;;;;;;;;;20.00;57.30;;;;;;5078724;28;19920;-66
2022/06/02 09:09:46;;;;;;;;;;;20.00;57.30;;;;;;5061340;28;20612;-65
2022/06/02 09:12:32;;;;;;;;;;;20.00;57.30;;;;;;5065193;28;19912;-65
2022/06/02 09:15:02;;;;;;;;;;;20.00;57.30;;;;;;5065020;28;21428;-66
2022/06/02 09:17:46;;;;;;;;;;;20.00;57.30;;;;;;5083773;28;19927;-65
2022/06/02 09:20:14;;;;;;;;;;;20.00;57.40;;;;;;5087911;28;19916;-65
2022/06/02 09:22:39;;;;;;;;;;;20.00;57.20;;;;;;5077354;28;20003;-66
2022/06/02 09:25:16;;;;;;;;;;;20.00;57.40;;;;;;5064069;28;20773;-65
2022/06/02 09:27:47;;;;;;;;;;;20.00;57.20;;;;;;5070591;28;20386;-65
2022/06/02 09:30:15;;;;;;;;;;;20.00;57.20;;;;;;5082276;28;19916;-65
2022/06/02 09:32:53;;;;;;;;;;;20.00;57.10;;;;;;5075884;28;20003;-66
2022/06/02 09:35:35;;;;;;;;;;;20.00;56.60;;;;;;5062788;28;19920;-65
2022/06/02 09:38:17;;;;;;;;;;;20.00;57.20;;;;;;5070743;28;20434;-66
2022/06/02 09:41:01;;;;;;;;;;;19.90;54.30;;;;;;5064555;28;19912;-65
2022/06/02 09:43:46;;;;;;;;;;;19.70;57.20;;;;;;5070317;28;19923;-65
2022/06/02 09:46:14;;;;;;;;;;;19.80;56.00;;;;;;5062301;28;19920;-65
2022/06/02 09:48:49;;;;;;;;;;;19.90;57.10;;;;;;5074491;28;20310;-66
2022/06/02 09:51:16;;;;;;;;;;;19.90;57.10;;;;;;5082647;28;19916;-65
2022/06/02 09:54:00;;;;;;;;;;;19.90;57.10;;;;;;5060553;28;19919;-65
2022/06/02 09:56:25;;;;;;;;;;;20.00;57.20;;;;;;5062417;28;19946;-65
2022/06/02 09:58:54;;;;;;;;;;;19.90;55.50;;;;;;5073987;28;20415;-65
2022/06/02 10:01:20;;;;;;;;;;;19.60;56.00;;;;;;5082245;28;19916;-65
2022/06/02 10:03:53;;;;;;;;;;;19.60;55.00;;;;;;5070958;28;20578;-65
2022/06/02 10:06:27;;;;;;;;;;;19.60;56.90;;;;;;5060722;28;20511;-65
2022/06/02 10:08:53;;;;;;;;;;;19.70;56.60;;;;;;5072974;28;19919;-66
2022/06/02 10:11:31;;;;;;;;;;;19.80;56.70;;;;;;5082067;28;19943;-65
2022/06/02 10:13:59;;;;;;;;;;;19.90;56.90;;;;;;5060339;28;19916;-61
2022/06/02 10:16:29;;;;;;;;;;;20.00;56.90;;;;;;5060622;28;19920;-65
2022/06/02 10:18:59;;;;;;;;;;;19.90;56.60;;;;;;5071165;28;19920;-65
2022/06/02 10:21:24;;;;;;;;;;;20.00;56.90;;;;;;5063313;28;19916;-65
2022/06/02 10:24:04;;;;;;;;;;;19.90;55.30;;;;;;5072617;28;19997;-65
2022/06/02 10:26:38;;;;;;;;;;;19.90;55.20;;;;;;5060415;28;20577;-65
2022/06/02 10:29:22;;;;;;;;;;;19.70;55.50;;;;;;5062600;28;19923;-65
2022/06/02 10:31:50;;;;;;;;;;;19.80;56.70;;;;;;5082061;28;19916;-64
2022/06/02 10:34:27;;;;;;;;;;;19.90;56.70;;;;;;5070205;28;20011;-65
2022/06/02 10:37:11;;;;;;;;;;;19.90;56.90;;;;;;5061578;28;19917;-66
2022/06/02 10:39:42;;;;;;;;;;;19.90;56.80;;;;;;5074582;28;20397;-66
2022/06/02 10:42:15;;;;;;;;;;;20.00;56.90;;;;;;5063570;28;19955;-67
2022/06/02 10:44:59;;;;;;;;;;;20.00;57.00;;;;;;5067969;28;20464;-66
2022/06/02 10:47:44;;;;;;;;;;;20.00;57.10;;;;;;5060958;28;19913;-66
2022/06/02 10:50:09;;;;;;;;;;;20.00;57.00;;;;;;5077503;28;19912;-65
2022/06/02 10:52:55;;;;;;;;;;;20.00;56.80;;;;;;5081549;28;19950;-66
2022/06/02 10:55:47;;;;;;;;;;;20.00;56.90;;;;;;5059325;28;20638;-66
2022/06/02 10:58:24;;;;;;;;;;;20.10;57.50;;;;;;5058933;28;19923;-66
2022/06/02 11:01:02;;;;;;;;;;;20.00;56.50;;;;;;5031671;28;19916;-64
2022/06/02 11:03:46;;;;;;;;;;;20.00;56.90;;;;;;5066883;28;19921;-67
2022/06/02 11:06:30;;;;;;;;;;;20.00;55.10;;;;;;5062115;28;20011;-66
2022/06/02 11:09:14;;;;;;;;;;;19.90;53.70;;;;;;5064341;28;19924;-66
2022/06/02 11:12:01;;;;;;;;;;;19.80;53.20;;;;;;5081871;28;19962;-67
2022/06/02 11:14:32;;;;;;;;;;;19.70;56.00;;;;;;5074771;28;20066;-66
2022/06/02 11:17:17;;;;;;;;;;;19.80;55.60;;;;;;5061724;28;20645;-66
2022/06/02 11:20:01;;;;;;;;;;;19.80;55.70;;;;;;5069363;28;19938;-66
2022/06/02 11:22:45;;;;;;;;;;;19.80;53.60;;;;;;5080440;28;19920;-65
2022/06/02 11:25:33;;;;;;;;;;;19.90;53.80;;;;;;5071724;28;19920;-66
2022/06/02 11:28:18;;;;;;;;;;;19.90;56.10;;;;;;5063303;28;20848;-66
2022/06/02 11:30:55;;;;;;;;;;;19.80;55.60;;;;;;5080174;28;19965;-65
2022/06/02 11:33:21;;;;;;;;;;;19.70;53.80;;;;;;5084433;28;19965;-67
2022/06/02 11:35:55;;;;;;;;;;;19.70;54.40;;;;;;5069951;28;19922;-66
2022/06/02 11:38:26;;;;;;;;;;;19.70;55.80;;;;;;5064673;28;19913;-66
2022/06/02 11:41:11;;;;;;;;;;;19.70;55.60;;;;;;5066993;28;19919;-66
2022/06/02 11:43:41;;;;;;;;;;;19.70;52.80;;;;;;5084653;28;19912;-65
2022/06/02 11:46:18;;;;;;;;;;;19.50;55.30;;;;;;5067773;28;19998;-66
2022/06/02 11:49:00;;;;;;;;;;;19.70;55.60;;;;;;5063511;28;19924;-66
2022/06/02 11:51:44;;;;;;;;;;;19.70;52.90;;;;;;5066170;28;19962;-66
2022/06/02 11:54:22;;;;;;;;;;;19.70;54.30;;;;;;5083622;28;19912;-64
2022/06/02 11:57:05;;;;;;;;;;;19.80;55.40;;;;;;5044788;28;19913;-66
2022/06/02 11:59:37;;;;;;;;;;;19.90;55.10;;;;;;5046673;28;20703;-66
2022/06/02 12:02:20;;;;;;;;;;;19.70;53.70;;;;;;5074035;28;19912;-66
2022/06/02 12:05:05;;;;;;;;;;;19.80;54.20;;;;;;5036884;28;20728;-65
2022/06/02 12:07:53;;;;;;;;;;;19.70;52.70;;;;;;5064244;28;19977;-66
2022/06/02 12:10:27;;;;;;;;;;;19.70;55.00;;;;;;5059734;28;19940;-67
2022/06/02 12:13:04;;;;;;;;;;;19.80;55.40;;;;;;5084317;28;19912;-65
2022/06/02 12:15:39;;;;;;;;;;;19.80;53.50;;;;;;5076725;28;19913;-65
2022/06/02 12:18:07;;;;;;;;;;;19.90;55.40;;;;;;5063693;28;19928;-66
2022/06/02 12:20:52;;;;;;;;;;;19.90;55.50;;;;;;5070926;28;19923;-66
2022/06/02 12:23:41;;;;;;;;;;;20.00;55.80;;;;;;5065345;28;20023;-67
2022/06/02 12:26:11;;;;;;;;;;;20.00;55.90;;;;;;5043312;28;19920;-66
2022/06/02 12:28:42;;;;;;;;;;;20.00;56.00;;;;;;5045018;28;19963;-66
2022/06/02 12:31:15;;;;;;;;;;;20.00;56.10;;;;;;5074295;28;19937;-65
2022/06/02 12:33:46;;;;;;;;;;;20.00;56.00;;;;;;5083620;28;20425;-67
2022/06/02 12:36:20;;;;;;;;;;;20.00;53.30;;;;;;5071972;28;20453;-66
2022/06/02 12:39:05;;;;;;;;;;;19.80;55.80;;;;;;5063033;28;20438;-67
2022/06/02 12:41:40;;;;;;;;;;;19.80;54.50;;;;;;5076407;28;19916;-67
2022/06/02 12:44:24;;;;;;;;;;;19.90;55.50;;;;;;5048992;28;20357;-66
2022/06/02 12:47:10;;;;;;;;;;;19.90;54.80;;;;;;5069288;28;20414;-66
2022/06/02 12:49:44;;;;;;;;;;;19.90;53.90;;;;;;5052066;28;19951;-67
2022/06/02 12:52:28;;;;;;;;;;;19.90;55.50;;;;;;5064766;28;19988;-66
2022/06/02 12:55:18;;;;;;;;;;;20.00;55.60;;;;;;5063848;28;20564;-65
2022/06/02 12:57:43;;;;;;;;;;;20.00;55.00;;;;;;5043278;28;19912;-66
2022/06/02 13:00:13;;;;;;;;;;;19.90;52.50;;;;;;5042659;28;19920;-66
2022/06/02 13:02:57;;;;;;;;;;;19.90;55.20;;;;;;5063647;28;19923;-66
2022/06/02 13:05:41;;;;;;;;;;;19.90;55.60;;;;;;5083419;28;19923;-66
2022/06/02 13:08:19;;;;;;;;;;;20.00;55.80;;;;;;5042972;28;19920;-66
2022/06/02 13:11:01;;;;;;;;;;;20.00;51.90;;;;;;5047347;28;20508;-66
2022/06/02 13:13:47;;;;;;;;;;;20.00;54.40;;;;;;5063898;28;20649;-66
2022/06/02 13:16:36;;;;;;;;;;;19.90;55.20;;;;;;5077786;28;20003;-65
2022/06/02 13:19:19;;;;;;;;;;;20.00;54.80;;;;;;5061066;28;20019;-66
2022/06/02 13:22:05;;;;;;;;;;;20.00;55.30;;;;;;5064093;28;22818;-66
2022/06/02 13:24:34;;;;;;;;;;;20.00;55.50;;;;;;5083098;28;19955;-66
2022/06/02 13:27:06;;;;;;;;;;;20.00;55.80;;;;;;5061799;28;19935;-66
2022/06/02 13:29:40;;;;;;;;;;;20.10;54.90;;;;;;5060565;28;19912;-66
2022/06/02 13:32:21;;;;;;;;;;;20.00;53.10;;;;;;5064999;28;20406;-66
2022/06/02 13:35:05;;;;;;;;;;;20.00;55.00;;;;;;5065117;28;19923;-66
2022/06/02 13:37:50;;;;;;;;;;;20.10;55.60;;;;;;5068185;28;19916;-66
2022/06/02 13:40:34;;;;;;;;;;;20.10;52.70;;;;;;5062387;28;19913;-65
2022/06/02 13:43:18;;;;;;;;;;;20.00;52.00;;;;;;5064593;28;19919;-66
2022/06/02 13:45:56;;;;;;;;;;;19.90;54.10;;;;;;5082056;28;19920;-66
2022/06/02 13:48:43;;;;;;;;;;;19.80;54.70;;;;;;5063151;28;19913;-65
2022/06/02 13:51:08;;;;;;;;;;;19.90;54.30;;;;;;5061380;28;19927;-66
2022/06/02 13:59:28;;;;;;;;;;;20.00;54.60;;;;;;5061582;28;20440;-67
2022/06/02 14:02:12;;;;;;;;;;;20.00;53.70;;;;;;5068021;28;19919;-66
2022/06/02 14:04:41;;;;;;;;;;;20.00;53.20;;;;;;5082523;28;19932;-66
2022/06/02 14:07:16;;;;;;;;;;;20.00;54.40;;;;;;5061245;28;19916;-67
2022/06/02 14:10:00;;;;;;;;;;;20.00;54.20;;;;;;5063861;28;19912;-66
2022/06/02 14:12:37;;;;;;;;;;;20.10;54.10;;;;;;5068639;28;19916;-65
2022/06/02 14:15:07;;;;;;;;;;;20.00;50.60;;;;;;5064682;28;19958;-66
2022/06/02 14:17:43;;;;;;;;;;;19.90;53.40;;;;;;5061501;28;20346;-66
2022/06/02 14:20:11;;;;;;;;;;;20.00;54.50;;;;;;5060849;28;20386;-66
2022/06/02 14:22:40;;;;;;;;;;;20.00;54.40;;;;;;5069988;28;20694;-66
2022/06/02 14:25:20;;;;;;;;;;;19.90;53.00;;;;;;5082253;28;20431;-66
2022/06/02 14:28:02;;;;;;;;;;;20.00;54.40;;;;;;5072647;28;25746;-65
2022/06/02 14:30:29;;;;;;;;;;;20.00;54.70;;;;;;5059491;28;21241;-65
2022/06/02 14:32:58;;;;;;;;;;;20.10;54.30;;;;;;5070691;28;19916;-66
2022/06/02 14:35:33;;;;;;;;;;;20.10;54.70;;;;;;5064337;28;19916;-66
2022/06/02 14:38:05;;;;;;;;;;;20.10;51.80;;;;;;5060245;28;20402;-66
2022/06/02 14:40:34;;;;;;;;;;;20.10;54.60;;;;;;5060953;28;20293;-66
2022/06/02 14:43:07;;;;;;;;;;;20.10;55.10;;;;;;5063205;28;19917;-65
2022/06/02 14:45:38;;;;;;;;;;;20.10;55.20;;;;;;5063775;28;20562;-66
2022/06/02 14:48:04;;;;;;;;;;;20.10;54.00;;;;;;5073467;28;19928;-66
2022/06/02 14:50:53;;;;;;;;;;;20.10;54.20;;;;;;5060837;28;19913;-66
2022/06/02 14:53:23;;;;;;;;;;;20.10;55.10;;;;;;5070716;28;20637;-66
2022/06/02 14:55:55;;;;;;;;;;;20.10;53.70;;;;;;5063114;28;22249;-66
2022/06/02 14:58:40;;;;;;;;;;;20.00;54.20;;;;;;5032492;28;19944;-66
2022/06/02 15:01:20;;;;;;;;;;;20.00;54.10;;;;;;5061080;28;19916;-66
2022/06/02 15:03:54;;;;;;;;;;;20.00;52.40;;;;;;5072806;28;19916;-66
2022/06/02 15:06:47;;;;;;;;;;;20.00;52.20;;;;;;5064315;28;19916;-65
2022/06/02 15:09:30;;;;;;;;;;;20.00;53.80;;;;;;5065897;28;19920;-66
2022/06/02 15:12:01;;;;;;;;;;;20.10;55.30;;;;;;5059842;28;19916;-65
2022/06/02 15:14:47;;;;;;;;;;;20.10;54.80;;;;;;5063819;28;19959;-66
2022/06/02 15:17:12;;;;;;;;;;;20.20;55.30;;;;;;5063896;28;19920;-65
2022/06/02 15:19:47;;;;;;;;;;;20.10;55.40;;;;;;5063886;28;20543;-66